createdAt,value
2022-10-08T00:01:08.927Z,4.37
2022-10-08T00:03:37.636Z,3.87
2022-10-08T00:06:12.009Z,3.87
2022-10-08T00:08:40.215Z,4.00
2022-10-08T00:11:13.485Z,4.13
2022-10-08T00:13:41.393Z,4.40
2022-10-08T00:16:15.395Z,4.30
2022-10-08T00:18:44.337Z,4.60
2022-10-08T00:21:17.462Z,3.90
2022-10-08T00:23:46.660Z,3.90
2022-10-08T00:26:13.930Z,3.90
2022-10-08T00:28:43.932Z,3.60
2022-10-08T00:31:13.532Z,3.60
2022-10-08T00:33:40.141Z,4.10
2022-10-08T00:36:10.404Z,3.93
2022-10-08T00:38:37.747Z,3.30
2022-10-08T00:41:06.202Z,4.00
2022-10-08T00:43:43.960Z,4.33
2022-10-08T09:04:54.257Z,2.50
2022-10-08T09:07:25.034Z,2.60
2022-10-08T09:09:53.591Z,2.90
2022-10-08T09:12:30.532Z,2.63
2022-10-08T09:14:59.728Z,2.57
2022-10-08T09:17:39.115Z,2.87
2022-10-08T09:20:06.533Z,2.93
2022-10-08T09:22:40.434Z,2.53
2022-10-08T09:25:20.468Z,3.10
2022-10-08T09:27:50.045Z,2.60
2022-10-08T09:30:42.842Z,2.77
2022-10-08T09:33:12.474Z,2.13
2022-10-08T09:36:05.218Z,1.87
2022-10-08T09:38:36.417Z,2.90
2022-10-08T09:41:09.757Z,2.53
2022-10-08T09:43:36.324Z,2.60
2022-10-08T09:46:28.190Z,2.27
2022-10-08T09:48:54.841Z,2.60
2022-10-08T09:51:21.620Z,2.77
2022-10-08T09:53:58.991Z,1.83
2022-10-08T11:05:22.639Z,2.23
2022-10-08T11:08:12.181Z,2.20
2022-10-08T11:10:54.876Z,2.77
2022-10-08T11:13:42.681Z,2.10
2022-10-08T11:16:18.750Z,1.67
2022-10-08T11:18:53.533Z,1.60
2022-10-08T11:21:44.636Z,2.00
2022-10-08T11:24:26.029Z,2.20
2022-10-08T11:27:12.963Z,1.90
2022-10-08T11:29:50.350Z,1.90
2022-10-08T11:32:18.257Z,2.70
2022-10-08T12:03:35.242Z,2.00
2022-10-08T12:06:18.886Z,1.90
2022-10-08T12:08:58.438Z,1.85
2022-10-08T12:11:40.069Z,1.77
2022-10-08T12:59:15.751Z,2.20
2022-10-08T13:01:44.088Z,2.30
2022-10-08T13:06:46.417Z,2.10
2022-10-08T13:09:34.390Z,1.60
2022-10-08T13:12:04.074Z,2.05
2022-10-08T15:05:59.357Z,1.83
2022-10-08T15:08:25.941Z,2.20
2022-10-08T15:10:52.594Z,2.20
2022-10-08T15:13:19.228Z,2.50
2022-10-08T15:15:45.861Z,2.37
2022-10-08T15:18:12.643Z,3.10
2022-10-08T15:20:39.629Z,4.37
2022-10-08T15:23:07.267Z,3.20
2022-10-08T15:25:33.977Z,2.63
2022-10-08T15:28:00.556Z,2.97
2022-10-08T15:30:27.217Z,2.77
2022-10-08T15:32:53.864Z,2.57
2022-10-08T15:35:20.470Z,2.30
2022-10-08T15:37:47.182Z,2.50
2022-10-08T15:40:13.772Z,2.57
2022-10-08T15:45:07.219Z,2.77
2022-10-08T15:47:33.821Z,2.53
2022-10-08T15:50:00.456Z,2.83
2022-10-08T15:52:27.026Z,2.80
2022-10-08T15:54:53.608Z,3.40
2022-10-08T15:57:20.235Z,3.07
2022-10-08T15:59:47.110Z,2.60
2022-10-08T16:02:16.922Z,2.23
2022-10-08T16:04:45.928Z,2.90
2022-10-08T16:07:12.493Z,2.83
2022-10-08T16:12:06.011Z,3.27
2022-10-08T16:14:32.925Z,4.13
2022-10-08T16:16:59.593Z,3.80
2022-10-08T16:19:27.214Z,2.97
2022-10-08T16:21:57.123Z,3.50
2022-10-08T16:24:24.497Z,3.60
2022-10-08T16:26:51.392Z,2.93
2022-10-08T16:29:18.715Z,2.30
2022-10-08T16:31:46.191Z,2.63
2022-10-08T16:34:15.192Z,2.87
2022-10-08T16:36:42.321Z,3.00
2022-10-08T16:39:11.055Z,3.03
2022-10-08T16:41:38.053Z,2.93
2022-10-08T16:44:13.358Z,3.53
2022-10-08T16:46:42.666Z,3.30
2022-10-08T18:49:30.819Z,4.57
2022-10-08T18:51:57.993Z,4.23
2022-10-08T18:54:24.655Z,3.70
2022-10-08T18:56:51.483Z,3.80
2022-10-08T18:59:18.116Z,4.03
2022-10-08T19:01:46.712Z,4.70
2022-10-08T19:04:18.459Z,4.10
2022-10-08T19:06:47.755Z,3.60
2022-10-08T19:09:15.262Z,4.67
2022-10-08T19:11:45.196Z,4.60
2022-10-08T19:14:14.329Z,4.50
2022-10-08T19:16:41.407Z,5.33
2022-10-08T19:19:12.023Z,4.20
2022-10-08T19:21:38.805Z,5.43
2022-10-08T19:24:07.511Z,4.27
2022-10-08T19:26:34.813Z,4.50
2022-10-08T19:29:01.463Z,4.33
2022-10-08T19:31:30.723Z,4.53
2022-10-08T19:33:59.858Z,3.43
2022-10-08T19:36:30.119Z,3.63
2022-10-08T19:38:58.534Z,4.07
2022-10-08T19:41:25.365Z,2.97
2022-10-08T19:43:53.048Z,2.93
2022-10-08T19:46:20.488Z,2.70
2022-10-08T19:48:51.486Z,3.10
2022-10-08T19:51:19.079Z,3.10
2022-10-08T19:53:46.025Z,3.27
2022-10-08T19:56:12.850Z,2.60
2022-10-08T19:58:43.916Z,2.93
2022-10-08T20:01:18.463Z,2.77
2022-10-08T20:03:45.474Z,2.93
2022-10-08T20:06:23.176Z,2.63
2022-10-08T20:08:53.575Z,2.33
2022-10-08T20:11:20.272Z,2.43
2022-10-08T20:13:48.379Z,2.40
2022-10-08T20:16:20.552Z,2.80
2022-10-08T20:19:05.140Z,2.70
2022-10-08T20:21:34.374Z,2.67
2022-10-08T20:24:01.241Z,2.07
2022-10-08T20:26:29.960Z,2.87
2022-10-08T20:29:01.448Z,2.50
2022-10-08T20:31:33.794Z,2.63
2022-10-08T20:34:02.738Z,2.40
2022-10-08T20:36:29.873Z,2.63
2022-10-08T20:38:57.002Z,2.63
2022-10-08T20:41:30.227Z,2.33
2022-10-08T20:44:00.523Z,2.67
2022-10-08T20:46:27.570Z,2.73
2022-10-08T20:48:54.790Z,2.53
2022-10-08T20:51:23.252Z,2.30
2022-10-08T20:53:52.321Z,2.50
2022-10-08T20:56:19.720Z,2.83
2022-10-08T20:58:46.707Z,3.03
2022-10-08T21:01:18.470Z,4.70
2022-10-08T21:03:46.458Z,4.20
2022-10-08T21:06:21.774Z,3.40
2022-10-08T21:08:50.001Z,4.10
2022-10-08T21:11:19.767Z,4.40
2022-10-08T21:13:47.123Z,3.83
2022-10-08T21:16:17.809Z,3.77
2022-10-08T21:18:44.798Z,4.43
2022-10-08T21:21:13.421Z,4.20
2022-10-08T21:23:40.693Z,4.20
2022-10-08T21:26:09.967Z,3.97
2022-10-08T21:28:36.898Z,4.67
2022-10-08T21:31:04.536Z,3.90
2022-10-08T21:33:34.046Z,4.80
2022-10-08T21:36:00.787Z,3.57
2022-10-08T21:38:27.383Z,3.73
2022-10-08T21:41:01.514Z,3.43
2022-10-08T21:43:31.869Z,3.17
2022-10-08T21:46:00.265Z,4.07
2022-10-08T21:48:28.368Z,3.27
2022-10-08T21:50:59.744Z,3.80
2022-10-08T21:53:27.599Z,2.97
2022-10-08T21:56:10.918Z,3.83
2022-10-08T21:58:43.031Z,4.00
2022-10-08T22:01:39.208Z,3.10
2022-10-08T22:04:12.705Z,3.50
2022-10-08T22:06:41.889Z,3.77
2022-10-08T22:09:11.691Z,2.97
2022-10-08T22:11:38.590Z,3.83
2022-10-08T22:14:05.207Z,3.23
2022-10-08T22:16:31.976Z,3.57
2022-10-08T22:18:58.669Z,3.30
2022-10-08T22:21:25.647Z,2.90
2022-10-08T22:23:52.898Z,3.70
2022-10-08T22:26:22.069Z,3.57
2022-10-08T22:28:49.530Z,2.93
2022-10-08T22:31:17.881Z,3.50
2022-10-08T22:33:44.809Z,3.67
2022-10-08T22:36:14.212Z,2.67
2022-10-08T22:38:42.122Z,3.07
2022-10-08T22:41:14.697Z,3.60
2022-10-08T22:43:41.623Z,3.07
2022-10-08T22:46:15.803Z,3.07
2022-10-08T22:48:42.526Z,3.17
2022-10-08T22:51:15.202Z,2.90
2022-10-08T22:53:41.873Z,2.77
2022-10-08T22:56:12.792Z,3.70
2022-10-08T22:58:39.337Z,3.53
2022-10-08T23:01:08.317Z,3.50
2022-10-08T23:03:35.963Z,3.37
2022-10-08T23:06:08.736Z,3.33
2022-10-08T23:08:36.006Z,3.80
2022-10-08T23:11:03.223Z,3.20
2022-10-08T23:13:30.498Z,3.40
2022-10-08T23:16:09.048Z,3.27
2022-10-08T23:18:38.339Z,3.27
2022-10-08T23:21:10.550Z,3.33
2022-10-08T23:23:37.146Z,3.43
2022-10-08T23:26:05.780Z,3.13
2022-10-08T23:28:34.115Z,3.17
2022-10-08T23:31:05.943Z,2.80
2022-10-08T23:33:32.590Z,3.97
2022-10-08T23:35:59.513Z,3.07
2022-10-08T23:38:26.323Z,3.80
2022-10-08T23:40:52.881Z,3.50
2022-10-08T23:43:19.482Z,2.63
2022-10-08T23:45:46.091Z,3.50
2022-10-08T23:48:12.696Z,2.93
2022-10-08T23:50:39.311Z,3.03
2022-10-08T23:53:06.087Z,3.13
2022-10-08T23:55:32.704Z,3.40
2022-10-08T23:57:59.286Z,2.97
